Time;durP1;ratioP1;P1;durP2;ratioP2;P2;SDS_P1;SDS_P2;PMS_P1;PMS_P2;Temp;Humidity;BMP_temperature;BMP_pressure;BME280_temperature;BME280_humidity;BME280_pressure;Samples;Min_cycle;Max_cycle;Signal;HPM_P1;HPM_P2
2021/11/16 00:00:36;;;;;;;;;;;20.70;62.20;;;;;;4975468;28;1311;-71
2021/11/16 00:03:02;;;;;;;;;;;20.80;62.30;;;;;;4974053;28;1215;-71
2021/11/16 00:05:27;;;;;;;;;;;20.80;62.40;;;;;;4992793;28;1466;-70
2021/11/16 00:07:53;;;;;;;;;;;20.70;62.40;;;;;;4992363;28;950;-71
2021/11/16 00:10:18;;;;;;;;;;;20.70;62.40;;;;;;4989963;28;1309;-70
2021/11/16 00:12:44;;;;;;;;;;;20.70;62.40;;;;;;4982190;28;1454;-71
2021/11/16 00:15:10;;;;;;;;;;;20.70;62.40;;;;;;4976911;28;1910;-70
2021/11/16 00:17:36;;;;;;;;;;;20.70;62.40;;;;;;4973762;28;1533;-70
2021/11/16 00:20:04;;;;;;;;;;;20.70;62.50;;;;;;4974367;28;1319;-70
2021/11/16 00:22:29;;;;;;;;;;;20.70;62.50;;;;;;4973386;28;1366;-69
2021/11/16 00:25:37;;;;;;;;;;;20.70;62.50;;;;;;4988973;28;1179;-69
2021/11/16 00:27:43;;;;;;;;;;;20.60;62.50;;;;;;4992272;28;1205;-69
2021/11/16 00:30:09;;;;;;;;;;;20.70;62.60;;;;;;4996958;28;1499;-69
2021/11/16 00:32:35;;;;;;;;;;;20.70;62.70;;;;;;4972975;28;1726;-69
2021/11/16 00:35:01;;;;;;;;;;;20.70;62.70;;;;;;4978959;28;1969;-68
2021/11/16 00:37:27;;;;;;;;;;;20.60;62.60;;;;;;4980305;28;1670;-69
2021/11/16 00:40:00;;;;;;;;;;;20.60;62.60;;;;;;4992198;28;1795;-68
2021/11/16 00:42:25;;;;;;;;;;;20.60;62.70;;;;;;4991079;28;1514;-71
2021/11/16 00:44:51;;;;;;;;;;;20.60;62.70;;;;;;4982959;28;1234;-70
2021/11/16 00:47:16;;;;;;;;;;;20.60;62.70;;;;;;4977379;28;1109;-70
2021/11/16 00:49:42;;;;;;;;;;;20.60;62.80;;;;;;4976859;28;926;-69
2021/11/16 00:52:07;;;;;;;;;;;20.60;62.80;;;;;;4976987;28;1512;-69
2021/11/16 00:54:33;;;;;;;;;;;20.60;62.80;;;;;;4984265;28;1707;-69
2021/11/16 00:56:59;;;;;;;;;;;20.60;62.90;;;;;;4982087;28;1906;-69
2021/11/16 00:59:25;;;;;;;;;;;20.60;62.80;;;;;;4977367;28;1353;-70
2021/11/16 01:01:50;;;;;;;;;;;20.60;62.90;;;;;;4976381;28;1363;-70
2021/11/16 01:04:15;;;;;;;;;;;20.60;62.90;;;;;;4977402;28;1368;-70
2021/11/16 01:06:41;;;;;;;;;;;20.60;62.90;;;;;;4989461;28;1404;-70
2021/11/16 01:09:07;;;;;;;;;;;20.50;62.90;;;;;;4977338;28;828;-70
2021/11/16 01:11:32;;;;;;;;;;;20.60;62.90;;;;;;4977220;28;1431;-70
2021/11/16 01:13:57;;;;;;;;;;;20.50;62.90;;;;;;4996796;28;802;-71
2021/11/16 01:16:23;;;;;;;;;;;20.50;63.70;;;;;;4983891;28;1970;-71
2021/11/16 01:18:48;;;;;;;;;;;20.50;62.90;;;;;;4996817;28;854;-70
2021/11/16 01:21:14;;;;;;;;;;;20.50;63.00;;;;;;4995203;28;1329;-70
2021/11/16 01:23:40;;;;;;;;;;;20.50;63.00;;;;;;4989137;28;1423;-71
2021/11/16 01:26:06;;;;;;;;;;;20.50;63.00;;;;;;4990297;28;812;-71
2021/11/16 01:28:31;;;;;;;;;;;20.50;63.80;;;;;;4992096;28;874;-72
2021/11/16 01:31:00;;;;;;;;;;;20.50;63.00;;;;;;4990046;28;1288;-71
2021/11/16 01:33:39;;;;;;;;;;;20.50;63.80;;;;;;4988859;28;903;-72
2021/11/16 01:36:05;;;;;;;;;;;20.50;63.10;;;;;;4996473;28;2654;-71
2021/11/16 01:38:30;;;;;;;;;;;20.50;63.10;;;;;;4996462;28;954;-71
2021/11/16 01:40:56;;;;;;;;;;;20.50;63.10;;;;;;4995413;28;1535;-70
2021/11/16 01:43:21;;;;;;;;;;;20.50;63.20;;;;;;4995766;28;1375;-70
2021/11/16 01:45:47;;;;;;;;;;;20.50;63.10;;;;;;4993552;28;1621;-70
2021/11/16 01:48:13;;;;;;;;;;;20.50;63.10;;;;;;4976847;28;1393;-70
2021/11/16 01:50:38;;;;;;;;;;;20.50;63.20;;;;;;4976677;28;1646;-71
2021/11/16 01:53:04;;;;;;;;;;;20.50;63.20;;;;;;4983229;28;1375;-71
2021/11/16 01:55:29;;;;;;;;;;;20.50;63.20;;;;;;4992834;28;1963;-71
2021/11/16 01:57:55;;;;;;;;;;;20.40;63.20;;;;;;4985273;28;926;-71
2021/11/16 02:00:30;;;;;;;;;;;20.40;63.20;;;;;;4992186;28;1265;-70
2021/11/16 02:02:56;;;;;;;;;;;20.40;63.20;;;;;;4985919;28;1155;-70
2021/11/16 02:05:33;;;;;;;;;;;20.40;63.20;;;;;;4978730;28;1390;-70
2021/11/16 02:07:58;;;;;;;;;;;20.40;63.20;;;;;;4986592;28;1392;-70
2021/11/16 02:10:24;;;;;;;;;;;20.40;63.20;;;;;;4977543;28;1433;-71
2021/11/16 02:12:49;;;;;;;;;;;20.40;63.30;;;;;;4975240;28;1371;-70
2021/11/16 02:15:15;;;;;;;;;;;20.40;63.30;;;;;;4975925;28;1961;-70
2021/11/16 02:17:43;;;;;;;;;;;20.40;63.30;;;;;;4986255;28;1349;-70
2021/11/16 02:20:09;;;;;;;;;;;20.40;63.30;;;;;;4982759;28;1670;-70
2021/11/16 02:22:34;;;;;;;;;;;20.40;63.30;;;;;;4991712;28;1745;-69
2021/11/16 02:25:00;;;;;;;;;;;20.40;63.40;;;;;;4992624;28;1658;-69
2021/11/16 02:27:25;;;;;;;;;;;20.40;63.40;;;;;;4994284;28;982;-70
2021/11/16 02:29:51;;;;;;;;;;;20.40;63.40;;;;;;5020152;28;1424;-69
2021/11/16 02:32:16;;;;;;;;;;;20.40;63.40;;;;;;4982261;28;1142;-69
2021/11/16 02:34:42;;;;;;;;;;;20.30;63.30;;;;;;4993247;28;1705;-68
2021/11/16 02:37:07;;;;;;;;;;;20.40;63.40;;;;;;4982947;28;1887;-68
2021/11/16 02:39:33;;;;;;;;;;;20.40;63.40;;;;;;4988754;28;1880;-69
2021/11/16 02:41:58;;;;;;;;;;;20.40;63.40;;;;;;4986069;28;1828;-68
2021/11/16 02:44:24;;;;;;;;;;;20.40;63.30;;;;;;4984857;28;1524;-71
2021/11/16 02:46:49;;;;;;;;;;;20.40;63.30;;;;;;4994873;28;1200;-71
2021/11/16 02:49:15;;;;;;;;;;;20.40;63.20;;;;;;4989371;28;1061;-71
2021/11/16 02:51:41;;;;;;;;;;;20.50;63.20;;;;;;5001840;28;1237;-71
2021/11/16 02:54:12;;;;;;;;;;;20.50;63.10;;;;;;4994026;28;1058;-71
2021/11/16 02:56:38;;;;;;;;;;;20.50;63.00;;;;;;4995158;28;1960;-71
2021/11/16 02:59:03;;;;;;;;;;;20.50;62.90;;;;;;4993891;28;975;-71
2021/11/16 03:01:29;;;;;;;;;;;20.60;62.90;;;;;;4994132;28;1228;-71
2021/11/16 03:03:54;;;;;;;;;;;20.60;62.80;;;;;;4999796;28;1094;-70
2021/11/16 03:06:20;;;;;;;;;;;20.60;62.70;;;;;;5002098;28;1289;-70
2021/11/16 03:08:46;;;;;;;;;;;20.60;62.60;;;;;;5001405;28;1667;-70
2021/11/16 03:11:11;;;;;;;;;;;20.60;62.50;;;;;;5000620;28;1435;-70
2021/11/16 03:13:37;;;;;;;;;;;20.70;62.40;;;;;;4996447;28;1404;-69
2021/11/16 03:16:10;;;;;;;;;;;20.60;62.40;;;;;;5001289;28;1914;-71
2021/11/16 03:18:36;;;;;;;;;;;20.70;62.30;;;;;;5001543;28;1529;-71
2021/11/16 03:21:01;;;;;;;;;;;20.70;62.30;;;;;;5002847;28;1408;-69
2021/11/16 03:23:27;;;;;;;;;;;20.70;62.20;;;;;;4993702;28;1230;-71
2021/11/16 03:25:57;;;;;;;;;;;20.70;62.20;;;;;;4994943;28;1297;-70
2021/11/16 03:28:24;;;;;;;;;;;20.70;62.10;;;;;;4989336;28;1410;-68
2021/11/16 03:30:51;;;;;;;;;;;20.70;62.00;;;;;;4989459;28;1402;-70
2021/11/16 03:33:17;;;;;;;;;;;20.70;62.00;;;;;;4989736;28;1237;-72
2021/11/16 03:35:43;;;;;;;;;;;20.70;62.00;;;;;;4992462;28;1883;-70
2021/11/16 03:38:09;;;;;;;;;;;20.80;62.00;;;;;;4989049;28;1198;-71
2021/11/16 03:40:35;;;;;;;;;;;20.80;61.90;;;;;;4990891;28;1323;-69
2021/11/16 03:43:01;;;;;;;;;;;20.80;61.90;;;;;;4972356;28;1250;-71
2021/11/16 03:45:26;;;;;;;;;;;20.80;61.90;;;;;;4992230;28;1213;-71
2021/11/16 03:47:52;;;;;;;;;;;20.80;62.60;;;;;;4991980;28;1236;-71
2021/11/16 03:50:18;;;;;;;;;;;20.80;61.80;;;;;;4992422;28;1527;-71
2021/11/16 03:52:48;;;;;;;;;;;20.80;61.80;;;;;;4973246;28;1069;-71
2021/11/16 03:55:13;;;;;;;;;;;20.80;61.80;;;;;;4987130;28;1906;-71
2021/11/16 03:57:39;;;;;;;;;;;20.80;61.80;;;;;;4980775;28;1077;-70
2021/11/16 04:00:05;;;;;;;;;;;20.80;61.70;;;;;;4972733;28;1284;-71
2021/11/16 04:02:31;;;;;;;;;;;20.80;61.70;;;;;;5005266;23;2242;-71
2021/11/16 04:04:56;;;;;;;;;;;20.80;61.70;;;;;;5011488;28;929;-71
2021/11/16 04:07:22;;;;;;;;;;;20.80;61.70;;;;;;4995391;28;1151;-71
2021/11/16 04:09:47;;;;;;;;;;;20.80;61.70;;;;;;5012536;28;1260;-72
2021/11/16 04:12:13;;;;;;;;;;;20.80;61.70;;;;;;5012786;28;1250;-71
2021/11/16 04:14:38;;;;;;;;;;;20.80;61.60;;;;;;5012955;28;1451;-71
2021/11/16 04:17:04;;;;;;;;;;;20.80;61.60;;;;;;4975482;28;1977;-71
2021/11/16 04:19:29;;;;;;;;;;;20.80;61.60;;;;;;5006242;28;1256;-71
2021/11/16 04:21:55;;;;;;;;;;;20.80;61.60;;;;;;5016665;28;1361;-71
2021/11/16 04:24:20;;;;;;;;;;;20.80;61.60;;;;;;4992608;28;1113;-71
2021/11/16 04:26:46;;;;;;;;;;;20.80;61.60;;;;;;4993168;28;1183;-71
2021/11/16 04:29:11;;;;;;;;;;;20.80;61.60;;;;;;5011384;28;1143;-71
2021/11/16 04:31:37;;;;;;;;;;;20.80;61.50;;;;;;4993039;28;1545;-71
2021/11/16 04:34:03;;;;;;;;;;;20.90;61.60;;;;;;4971574;28;1321;-71
2021/11/16 04:36:28;;;;;;;;;;;20.80;61.50;;;;;;4994598;28;1965;-71
2021/11/16 04:38:54;;;;;;;;;;;20.90;61.60;;;;;;4999840;28;1080;-71
2021/11/16 04:41:19;;;;;;;;;;;20.90;61.60;;;;;;4998630;28;1313;-71
2021/11/16 04:43:45;;;;;;;;;;;20.90;61.60;;;;;;4994697;28;1279;-71
2021/11/16 04:46:15;;;;;;;;;;;20.90;61.50;;;;;;4975923;28;1278;-71
2021/11/16 04:48:50;;;;;;;;;;;20.90;61.50;;;;;;5005773;28;1242;-71
2021/11/16 04:51:37;;;;;;;;;;;20.90;61.50;;;;;;5011778;28;1298;-71
2021/11/16 05:04:45;;;;;;;;;;;20.90;61.40;;;;;;4985435;28;1128;-71
2021/11/16 05:07:14;;;;;;;;;;;20.90;61.40;;;;;;5010973;28;1325;-71
2021/11/16 05:09:39;;;;;;;;;;;20.90;61.40;;;;;;5012654;28;1048;-70
2021/11/16 05:12:05;;;;;;;;;;;20.90;61.50;;;;;;4977868;28;1516;-71
2021/11/16 05:14:31;;;;;;;;;;;20.90;61.40;;;;;;5011918;28;1370;-71
2021/11/16 05:16:56;;;;;;;;;;;20.90;61.40;;;;;;4978643;28;1906;-71
2021/11/16 05:19:21;;;;;;;;;;;20.90;61.40;;;;;;5012605;28;1453;-71
2021/11/16 05:21:47;;;;;;;;;;;20.90;61.40;;;;;;5017120;28;1316;-71
2021/11/16 05:24:13;;;;;;;;;;;20.90;61.40;;;;;;4992506;28;1280;-71
2021/11/16 05:26:38;;;;;;;;;;;20.90;61.40;;;;;;4992759;28;1175;-71
2021/11/16 05:29:04;;;;;;;;;;;20.90;61.40;;;;;;5009825;28;1347;-71
2021/11/16 05:31:29;;;;;;;;;;;20.90;61.30;;;;;;4981187;28;1308;-71
2021/11/16 05:33:55;;;;;;;;;;;20.90;61.30;;;;;;5007442;28;1280;-71
2021/11/16 05:36:21;;;;;;;;;;;20.90;61.40;;;;;;5015462;28;1906;-71
2021/11/16 05:38:47;;;;;;;;;;;20.90;61.30;;;;;;5015397;28;1204;-71
2021/11/16 05:41:13;;;;;;;;;;;20.90;61.30;;;;;;5014756;28;1386;-71
2021/11/16 05:43:39;;;;;;;;;;;20.90;61.40;;;;;;4998173;28;1112;-70
2021/11/16 05:46:04;;;;;;;;;;;20.90;61.30;;;;;;4979414;28;1112;-70
2021/11/16 05:48:36;;;;;;;;;;;20.90;61.30;;;;;;4990665;28;1156;-71
2021/11/16 05:51:02;;;;;;;;;;;20.90;61.40;;;;;;5014178;28;1265;-71
2021/11/16 05:53:27;;;;;;;;;;;20.90;61.30;;;;;;4985266;28;1361;-71
2021/11/16 05:55:52;;;;;;;;;;;20.90;61.30;;;;;;5014836;28;1902;-71
2021/11/16 05:58:18;;;;;;;;;;;20.90;61.30;;;;;;5015483;28;1249;-71
2021/11/16 06:00:44;;;;;;;;;;;20.90;61.30;;;;;;4978662;28;1370;-72
2021/11/16 06:03:09;;;;;;;;;;;20.90;61.30;;;;;;4977163;28;1156;-71
2021/11/16 06:05:35;;;;;;;;;;;20.90;61.30;;;;;;5014287;28;1089;-71
2021/11/16 06:08:00;;;;;;;;;;;20.90;61.30;;;;;;4985818;28;1295;-71
2021/11/16 06:10:26;;;;;;;;;;;20.90;61.30;;;;;;5013520;28;1303;-71
2021/11/16 06:12:51;;;;;;;;;;;20.90;61.30;;;;;;4985096;28;1176;-71
2021/11/16 06:15:16;;;;;;;;;;;20.90;61.30;;;;;;5013734;28;1942;-71
2021/11/16 06:17:43;;;;;;;;;;;20.90;61.30;;;;;;5014973;28;1060;-70
2021/11/16 06:20:09;;;;;;;;;;;20.90;61.30;;;;;;5005768;28;1842;-70
2021/11/16 06:22:34;;;;;;;;;;;20.90;62.00;;;;;;4993497;28;1184;-70
2021/11/16 06:25:00;;;;;;;;;;;20.90;61.30;;;;;;5009158;28;1059;-70
2021/11/16 06:27:26;;;;;;;;;;;20.90;61.30;;;;;;4976752;28;1291;-70
2021/11/16 06:29:51;;;;;;;;;;;20.90;61.30;;;;;;5014641;28;1300;-70
2021/11/16 06:32:17;;;;;;;;;;;20.90;61.20;;;;;;4986255;28;1315;-70
2021/11/16 06:34:42;;;;;;;;;;;20.90;61.20;;;;;;4996010;28;1272;-70
2021/11/16 06:37:07;;;;;;;;;;;20.90;61.20;;;;;;4986731;28;1895;-70
2021/11/16 06:39:33;;;;;;;;;;;20.90;61.20;;;;;;4995826;28;1260;-70
2021/11/16 06:42:01;;;;;;;;;;;20.90;61.20;;;;;;4987151;28;1284;-70
2021/11/16 06:44:26;;;;;;;;;;;20.90;61.20;;;;;;4995083;28;1306;-71
2021/11/16 06:46:52;;;;;;;;;;;20.90;61.20;;;;;;4989022;28;1301;-71
2021/11/16 06:49:17;;;;;;;;;;;20.90;61.20;;;;;;5001222;28;1358;-71
2021/11/16 06:51:43;;;;;;;;;;;20.90;61.20;;;;;;5002064;28;1300;-70
2021/11/16 06:54:10;;;;;;;;;;;20.90;61.20;;;;;;4994830;28;1297;-70
2021/11/16 06:56:36;;;;;;;;;;;20.90;61.20;;;;;;4994606;28;1934;-71
2021/11/16 06:59:01;;;;;;;;;;;20.90;61.20;;;;;;4995060;28;1322;-71
2021/11/16 07:01:28;;;;;;;;;;;20.90;61.20;;;;;;5002321;28;1341;-68
2021/11/16 07:03:55;;;;;;;;;;;20.90;61.00;;;;;;4994328;28;1163;-70
2021/11/16 07:06:24;;;;;;;;;;;20.90;57.60;;;;;;4994453;28;1293;-70
2021/11/16 07:08:53;;;;;;;;;;;20.90;57.80;;;;;;4995018;28;1297;-70
2021/11/16 07:11:19;;;;;;;;;;;20.90;57.40;;;;;;5000546;28;1287;-70
2021/11/16 07:14:03;;;;;;;;;;;20.90;57.70;;;;;;4995411;28;1530;-70
2021/11/16 07:16:30;;;;;;;;;;;20.90;57.70;;;;;;4998673;28;1969;-70
2021/11/16 07:18:56;;;;;;;;;;;20.90;57.70;;;;;;4985323;28;1338;-70
2021/11/16 07:21:22;;;;;;;;;;;20.90;57.80;;;;;;5018382;28;1367;-70
2021/11/16 07:24:11;;;;;;;;;;;20.90;58.00;;;;;;4985396;28;1443;-70
2021/11/16 07:26:39;;;;;;;;;;;20.90;58.20;;;;;;4995711;28;1349;-70
2021/11/16 07:29:07;;;;;;;;;;;20.90;58.50;;;;;;5004075;28;1254;-70
2021/11/16 07:31:36;;;;;;;;;;;20.90;58.70;;;;;;4977370;28;1308;-69
2021/11/16 07:34:14;;;;;;;;;;;20.90;58.80;;;;;;4989243;28;1300;-70
2021/11/16 07:36:40;;;;;;;;;;;20.90;58.90;;;;;;5013432;28;1948;-70
2021/11/16 07:39:07;;;;;;;;;;;20.90;59.00;;;;;;5012598;28;1432;-70
2021/11/16 07:41:33;;;;;;;;;;;20.90;59.30;;;;;;4995384;28;1311;-70
2021/11/16 07:43:58;;;;;;;;;;;21.00;59.30;;;;;;4998610;28;1394;-70
2021/11/16 07:46:23;;;;;;;;;;;21.10;59.30;;;;;;4984046;28;1367;-70
2021/11/16 07:48:49;;;;;;;;;;;21.20;59.20;;;;;;4998944;28;1269;-70
2021/11/16 07:51:16;;;;;;;;;;;21.20;59.10;;;;;;4982958;28;1459;-70
2021/11/16 07:53:47;;;;;;;;;;;21.30;59.00;;;;;;4997629;28;1360;-71
2021/11/16 07:56:20;;;;;;;;;;;21.40;58.90;;;;;;4993599;28;1958;-70
2021/11/16 07:58:48;;;;;;;;;;;21.50;58.70;;;;;;4993553;28;1281;-70
2021/11/16 08:01:15;;;;;;;;;;;21.60;58.50;;;;;;4992672;28;1354;-70
2021/11/16 08:03:44;;;;;;;;;;;21.70;58.40;;;;;;4993504;28;1280;-70
2021/11/16 08:06:29;;;;;;;;;;;21.80;58.20;;;;;;4993308;28;1274;-70
2021/11/16 08:09:06;;;;;;;;;;;21.80;58.10;;;;;;4981643;28;1405;-70
2021/11/16 08:11:36;;;;;;;;;;;21.90;58.00;;;;;;5010322;28;1334;-70
2021/11/16 08:14:12;;;;;;;;;;;22.00;57.90;;;;;;4993075;28;1359;-70
2021/11/16 08:16:55;;;;;;;;;;;22.00;57.80;;;;;;4988391;28;1911;-70
2021/11/16 08:19:22;;;;;;;;;;;22.10;57.70;;;;;;4993327;28;1296;-70
2021/11/16 08:21:48;;;;;;;;;;;22.10;57.70;;;;;;5013789;28;1708;-70
2021/11/16 08:24:15;;;;;;;;;;;22.10;57.60;;;;;;4987393;28;1341;-70
2021/11/16 08:26:44;;;;;;;;;;;22.20;57.60;;;;;;4994193;28;1312;-70
2021/11/16 08:29:11;;;;;;;;;;;22.20;58.10;;;;;;5010440;28;1275;-71
2021/11/16 08:31:42;;;;;;;;;;;22.20;57.40;;;;;;4976204;28;1344;-70
2021/11/16 08:34:08;;;;;;;;;;;22.30;57.40;;;;;;5006165;28;1320;-70
2021/11/16 08:36:41;;;;;;;;;;;22.30;57.40;;;;;;5012923;28;1906;-70
2021/11/16 08:39:08;;;;;;;;;;;22.30;57.40;;;;;;5012726;28;1337;-70
2021/11/16 08:41:34;;;;;;;;;;;22.30;57.30;;;;;;5011607;28;1325;-70
2021/11/16 08:44:08;;;;;;;;;;;22.40;57.30;;;;;;5012373;28;1276;-70
2021/11/16 08:46:34;;;;;;;;;;;22.40;57.30;;;;;;5012521;28;1383;-70
2021/11/16 08:48:59;;;;;;;;;;;22.40;57.30;;;;;;5011835;28;1371;-70
2021/11/16 08:51:27;;;;;;;;;;;22.40;57.20;;;;;;5009942;28;2061;-70
2021/11/16 08:53:52;;;;;;;;;;;22.40;57.20;;;;;;5004514;28;1287;-70
2021/11/16 08:56:18;;;;;;;;;;;22.50;57.20;;;;;;5004396;28;1910;-70
2021/11/16 08:58:44;;;;;;;;;;;22.50;57.20;;;;;;5005196;28;1329;-70
2021/11/16 09:01:09;;;;;;;;;;;22.50;57.20;;;;;;4986874;28;1316;-70
2021/11/16 09:03:41;;;;;;;;;;;22.50;57.20;;;;;;5002651;28;1282;-70
2021/11/16 09:06:17;;;;;;;;;;;22.50;57.20;;;;;;5006140;28;1375;-71
2021/11/16 09:08:42;;;;;;;;;;;22.50;57.20;;;;;;4996812;28;1353;-70
2021/11/16 09:11:13;;;;;;;;;;;22.50;57.20;;;;;;5013778;28;1363;-70
2021/11/16 09:13:39;;;;;;;;;;;22.50;57.30;;;;;;4997640;28;1337;-70
2021/11/16 09:16:05;;;;;;;;;;;22.60;57.30;;;;;;4990618;28;1914;-69
2021/11/16 09:18:36;;;;;;;;;;;22.60;57.30;;;;;;4998356;28;1375;-69
2021/11/16 09:21:06;;;;;;;;;;;22.50;57.30;;;;;;5007796;28;1429;-70
2021/11/16 09:23:32;;;;;;;;;;;22.50;57.30;;;;;;5002598;28;1255;-70
2021/11/16 09:26:09;;;;;;;;;;;22.50;57.30;;;;;;5016057;28;1255;-70
2021/11/16 09:28:35;;;;;;;;;;;22.60;57.40;;;;;;5020086;28;1274;-70
2021/11/16 09:31:35;;;;;;;;;;;22.50;57.30;;;;;;5005245;28;1337;-69
2021/11/16 09:34:02;;;;;;;;;;;22.50;57.30;;;;;;4947987;29;1357;-69
2021/11/16 09:36:29;;;;;;;;;;;22.60;57.30;;;;;;4977178;28;1978;-70
2021/11/16 09:38:57;;;;;;;;;;;22.60;57.30;;;;;;5015571;28;1469;-71
2021/11/16 09:41:32;;;;;;;;;;;22.50;57.30;;;;;;4997519;28;1268;-70
2021/11/16 09:44:03;;;;;;;;;;;22.60;57.30;;;;;;5000804;28;1244;-70
2021/11/16 09:46:29;;;;;;;;;;;22.50;57.30;;;;;;4987280;28;1124;-70
2021/11/16 09:49:01;;;;;;;;;;;22.50;57.30;;;;;;5011986;28;1270;-70
2021/11/16 09:51:26;;;;;;;;;;;22.50;57.30;;;;;;4987038;28;1390;-71
2021/11/16 09:53:58;;;;;;;;;;;22.50;57.30;;;;;;4995467;28;1340;-70
2021/11/16 09:56:24;;;;;;;;;;;22.50;57.40;;;;;;4995638;28;1910;-71
2021/11/16 09:58:50;;;;;;;;;;;22.50;57.40;;;;;;4991027;28;1271;-70
2021/11/16 10:01:48;;;;;;;;;;;22.50;57.40;;;;;;5008701;23;3907;-72
2021/11/16 10:04:19;;;;;;;;;;;22.50;57.50;;;;;;4957389;28;1482;-71
2021/11/16 10:06:45;;;;;;;;;;;22.50;57.50;;;;;;4971920;28;1320;-71
2021/11/16 10:09:10;;;;;;;;;;;22.50;57.50;;;;;;4976396;28;1372;-71
2021/11/16 10:11:44;;;;;;;;;;;22.40;57.60;;;;;;4970761;28;1685;-71
2021/11/16 10:14:15;;;;;;;;;;;22.40;57.60;;;;;;4957061;29;1041;-71
2021/11/16 10:16:41;;;;;;;;;;;22.40;57.60;;;;;;4955677;29;1959;-69
2021/11/16 10:19:06;;;;;;;;;;;22.40;57.70;;;;;;4957120;29;1093;-72
2021/11/16 10:21:32;;;;;;;;;;;22.40;57.70;;;;;;4965826;28;1398;-71
2021/11/16 10:23:59;;;;;;;;;;;22.40;57.80;;;;;;4956943;29;1317;-70
2021/11/16 10:26:32;;;;;;;;;;;22.30;57.80;;;;;;4957171;29;1403;-71
2021/11/16 10:28:57;;;;;;;;;;;22.40;57.90;;;;;;4963973;28;1284;-71
2021/11/16 10:31:29;;;;;;;;;;;22.30;57.80;;;;;;4958919;28;1301;-71
2021/11/16 10:33:56;;;;;;;;;;;22.30;57.90;;;;;;4956860;29;1381;-70
2021/11/16 10:36:21;;;;;;;;;;;22.30;57.90;;;;;;4956562;28;1965;-70
2021/11/16 10:38:48;;;;;;;;;;;22.30;58.00;;;;;;4957045;29;1283;-70
2021/11/16 10:41:23;;;;;;;;;;;22.30;58.00;;;;;;4954979;28;1275;-71
2021/11/16 10:43:53;;;;;;;;;;;22.30;58.10;;;;;;4956780;29;1332;-71
2021/11/16 10:46:19;;;;;;;;;;;22.30;58.10;;;;;;4956472;28;1443;-70
2021/11/16 10:48:45;;;;;;;;;;;22.30;58.20;;;;;;4956598;28;1292;-71
2021/11/16 10:51:11;;;;;;;;;;;22.20;58.20;;;;;;4956178;29;1360;-70
2021/11/16 10:53:36;;;;;;;;;;;22.20;58.20;;;;;;4956287;28;1340;-70
2021/11/16 10:56:03;;;;;;;;;;;22.20;58.20;;;;;;4955166;29;1890;-71
2021/11/16 10:58:35;;;;;;;;;;;22.20;58.30;;;;;;4956664;28;1341;-72
2021/11/16 11:01:05;;;;;;;;;;;22.20;58.30;;;;;;4955854;29;1216;-72
2021/11/16 11:03:32;;;;;;;;;;;22.20;58.30;;;;;;4956501;28;1371;-71
2021/11/16 11:06:04;;;;;;;;;;;22.20;58.30;;;;;;4956314;28;1211;-71
2021/11/16 11:08:33;;;;;;;;;;;22.20;58.30;;;;;;4955044;29;1217;-71
2021/11/16 11:10:59;;;;;;;;;;;22.20;58.30;;;;;;4955857;29;1382;-71
2021/11/16 11:13:26;;;;;;;;;;;22.20;58.20;;;;;;4955152;29;1310;-72
2021/11/16 11:15:51;;;;;;;;;;;22.30;58.10;;;;;;4955735;29;1907;-71
2021/11/16 11:18:30;;;;;;;;;;;22.30;58.00;;;;;;4955940;29;1313;-71
2021/11/16 11:20:59;;;;;;;;;;;22.30;58.00;;;;;;4963094;28;1348;-72
2021/11/16 11:23:30;;;;;;;;;;;22.30;57.90;;;;;;4955434;28;1357;-72
2021/11/16 11:26:17;;;;;;;;;;;22.40;58.00;;;;;;4954364;28;1283;-71
2021/11/16 11:28:50;;;;;;;;;;;22.40;57.90;;;;;;4960705;28;1349;-71
2021/11/16 11:31:28;;;;;;;;;;;22.40;57.90;;;;;;4957948;28;1366;-71
2021/11/16 11:33:53;;;;;;;;;;;22.40;57.90;;;;;;4938710;29;1233;-71
2021/11/16 11:36:22;;;;;;;;;;;22.40;57.80;;;;;;4955864;28;1970;-71
2021/11/16 11:38:48;;;;;;;;;;;22.40;57.80;;;;;;4955494;29;1069;-71
2021/11/16 11:41:13;;;;;;;;;;;22.50;57.80;;;;;;4955411;28;1268;-72
2021/11/16 11:43:39;;;;;;;;;;;22.40;57.80;;;;;;4955560;28;1286;-72
2021/11/16 11:46:05;;;;;;;;;;;22.40;57.80;;;;;;4955456;28;1382;-71
2021/11/16 11:48:30;;;;;;;;;;;22.50;57.70;;;;;;4955538;28;1297;-71
2021/11/16 11:50:57;;;;;;;;;;;22.50;57.80;;;;;;4954926;29;1248;-70
2021/11/16 11:53:23;;;;;;;;;;;22.50;57.80;;;;;;4950180;29;1916;-72
2021/11/16 11:55:50;;;;;;;;;;;22.50;57.80;;;;;;4954911;29;1902;-72
2021/11/16 11:58:15;;;;;;;;;;;22.50;57.70;;;;;;4953741;29;1872;-72
2021/11/16 12:00:41;;;;;;;;;;;22.50;57.70;;;;;;4953706;29;1271;-72
2021/11/16 12:03:08;;;;;;;;;;;22.50;57.70;;;;;;4954910;28;1180;-71
2021/11/16 12:05:34;;;;;;;;;;;22.50;57.70;;;;;;4953963;29;1294;-71
2021/11/16 12:07:59;;;;;;;;;;;22.50;57.70;;;;;;4953880;29;1256;-71
2021/11/16 12:10:25;;;;;;;;;;;22.50;57.70;;;;;;4953760;29;1177;-71
2021/11/16 12:12:53;;;;;;;;;;;22.50;57.70;;;;;;4954869;28;1282;-72
2021/11/16 12:15:31;;;;;;;;;;;22.50;57.70;;;;;;4953738;29;1185;-71
2021/11/16 12:17:57;;;;;;;;;;;22.50;57.70;;;;;;4955222;28;1065;-71
2021/11/16 12:20:32;;;;;;;;;;;22.50;57.80;;;;;;4959080;28;1045;-71
2021/11/16 12:22:58;;;;;;;;;;;22.50;57.80;;;;;;4958374;28;1349;-71
2021/11/16 12:25:24;;;;;;;;;;;22.40;57.80;;;;;;4954933;28;1125;-71
2021/11/16 12:27:49;;;;;;;;;;;22.40;57.80;;;;;;4955048;29;1391;-71
2021/11/16 12:30:21;;;;;;;;;;;22.40;57.80;;;;;;4964416;28;1132;-72
2021/11/16 12:32:50;;;;;;;;;;;22.40;57.90;;;;;;4953180;29;1379;-71
2021/11/16 12:35:16;;;;;;;;;;;22.40;57.90;;;;;;4953502;28;1138;-72
2021/11/16 12:37:43;;;;;;;;;;;22.40;57.90;;;;;;4954245;28;1966;-71
2021/11/16 12:40:09;;;;;;;;;;;22.40;57.90;;;;;;4961193;28;1372;-71
2021/11/16 12:42:34;;;;;;;;;;;22.40;57.90;;;;;;4960685;28;1277;-71
2021/11/16 12:45:00;;;;;;;;;;;22.40;57.90;;;;;;4959896;29;1386;-71
2021/11/16 12:47:27;;;;;;;;;;;22.40;57.90;;;;;;4960908;28;1135;-71
2021/11/16 12:49:54;;;;;;;;;;;22.40;57.90;;;;;;4976168;28;1431;-71
2021/11/16 12:52:22;;;;;;;;;;;22.40;58.00;;;;;;4975385;28;1344;-70
2021/11/16 12:54:48;;;;;;;;;;;22.40;57.90;;;;;;4961108;28;1287;-71
2021/11/16 12:57:15;;;;;;;;;;;22.40;58.00;;;;;;4960902;28;1977;-71
2021/11/16 12:59:43;;;;;;;;;;;22.40;58.00;;;;;;4961027;29;1275;-70
2021/11/16 13:02:24;;;;;;;;;;;22.40;58.00;;;;;;4959488;29;1333;-70
2021/11/16 13:04:51;;;;;;;;;;;22.40;58.00;;;;;;4957087;28;1885;-71
2021/11/16 13:07:20;;;;;;;;;;;22.40;57.90;;;;;;4960554;28;1368;-70
2021/11/16 13:09:50;;;;;;;;;;;22.40;58.00;;;;;;4959527;28;1383;-70
2021/11/16 13:12:34;;;;;;;;;;;22.40;58.00;;;;;;4959182;29;1183;-71
2021/11/16 13:15:08;;;;;;;;;;;22.40;58.00;;;;;;4960841;28;1125;-71
2021/11/16 13:17:53;;;;;;;;;;;22.40;58.00;;;;;;4959645;29;1919;-71
2021/11/16 13:20:27;;;;;;;;;;;22.40;58.00;;;;;;4963433;28;1466;-71
2021/11/16 13:22:54;;;;;;;;;;;22.40;58.10;;;;;;4980547;28;1360;-71
2021/11/16 13:25:38;;;;;;;;;;;22.40;58.10;;;;;;4959589;29;1279;-71
2021/11/16 13:28:05;;;;;;;;;;;22.40;58.20;;;;;;4960713;29;1316;-72
2021/11/16 13:30:30;;;;;;;;;;;22.40;58.20;;;;;;4985030;28;1280;-72
2021/11/16 13:32:55;;;;;;;;;;;22.40;58.20;;;;;;4960342;28;1252;-72
2021/11/16 13:35:21;;;;;;;;;;;22.30;58.20;;;;;;4960605;28;1272;-71
2021/11/16 13:37:50;;;;;;;;;;;22.30;58.20;;;;;;4960615;28;1899;-71
2021/11/16 13:40:17;;;;;;;;;;;22.30;58.30;;;;;;4959423;28;1074;-71
2021/11/16 13:42:42;;;;;;;;;;;22.30;58.30;;;;;;4960447;28;1285;-71
2021/11/16 13:45:08;;;;;;;;;;;22.30;58.40;;;;;;4960606;28;1281;-71
2021/11/16 13:47:37;;;;;;;;;;;22.30;58.40;;;;;;4959321;29;1285;-71
2021/11/16 13:50:10;;;;;;;;;;;22.30;58.40;;;;;;4958356;28;1291;-72
2021/11/16 13:52:48;;;;;;;;;;;22.20;58.40;;;;;;4955972;29;1375;-72
2021/11/16 13:55:18;;;;;;;;;;;22.20;58.40;;;;;;4956230;29;1236;-72
2021/11/16 13:57:44;;;;;;;;;;;22.20;58.50;;;;;;4956171;28;1949;-72
2021/11/16 14:00:17;;;;;;;;;;;22.20;58.50;;;;;;4956267;29;1469;-72
2021/11/16 14:02:53;;;;;;;;;;;22.20;58.50;;;;;;4955719;28;1264;-72
2021/11/16 14:05:25;;;;;;;;;;;22.20;58.60;;;;;;4957268;29;1330;-71
2021/11/16 14:07:55;;;;;;;;;;;22.20;58.60;;;;;;4956157;28;1025;-71
2021/11/16 14:10:20;;;;;;;;;;;22.10;58.60;;;;;;4957200;29;1301;-72
2021/11/16 14:12:46;;;;;;;;;;;22.10;58.70;;;;;;4955721;28;1303;-73
2021/11/16 14:15:18;;;;;;;;;;;22.10;58.70;;;;;;4956964;29;1058;-72
2021/11/16 14:17:44;;;;;;;;;;;22.10;58.70;;;;;;4963834;28;1957;-72
2021/11/16 14:20:10;;;;;;;;;;;22.10;58.80;;;;;;4958396;28;1247;-72
2021/11/16 14:22:37;;;;;;;;;;;22.10;58.80;;;;;;4964362;28;1149;-72
2021/11/16 14:25:09;;;;;;;;;;;22.10;58.80;;;;;;4939871;29;1531;-72
2021/11/16 14:27:35;;;;;;;;;;;22.10;58.80;;;;;;4956728;29;1301;-72
2021/11/16 14:30:04;;;;;;;;;;;22.00;58.80;;;;;;4965919;28;1053;-72
2021/11/16 14:32:30;;;;;;;;;;;22.00;58.80;;;;;;4956577;28;1237;-72
2021/11/16 14:34:55;;;;;;;;;;;22.00;58.80;;;;;;4956509;29;1319;-73
2021/11/16 14:37:21;;;;;;;;;;;22.00;58.90;;;;;;4945319;29;1970;-68
2021/11/16 14:39:46;;;;;;;;;;;22.00;58.90;;;;;;4954120;29;1618;-70
2021/11/16 14:42:13;;;;;;;;;;;22.00;58.90;;;;;;4956852;28;1359;-70
2021/11/16 14:44:40;;;;;;;;;;;22.00;58.90;;;;;;4955420;29;1082;-70